sensor_id;sensor_type;location;lat;lon;timestamp;pressure;altitude;pressure_sealevel;temperature;humidity
50087;BME280;35967;50.718;7.050;2022-11-23T00:02:29;99009.09;;;9.99;74.12
50087;BME280;35967;50.718;7.050;2022-11-23T00:12:33;99012.88;;;9.91;74.88
50087;BME280;35967;50.718;7.050;2022-11-23T00:22:36;99017.31;;;9.88;75.33
50087;BME280;35967;50.718;7.050;2022-11-23T00:32:41;99032.78;;;9.86;75.00
50087;BME280;35967;50.718;7.050;2022-11-23T00:42:44;99035.44;;;9.85;75.48
50087;BME280;35967;50.718;7.050;2022-11-23T00:52:48;99038.38;;;9.96;75.05
50087;BME280;35967;50.718;7.050;2022-11-23T01:02:51;99040.97;;;9.94;75.47
50087;BME280;35967;50.718;7.050;2022-11-23T01:23:36;99055.38;;;9.99;75.62
50087;BME280;35967;50.718;7.050;2022-11-23T01:33:41;99065.00;;;9.93;75.46
50087;BME280;35967;50.718;7.050;2022-11-23T01:43:47;99070.59;;;10.03;75.57
50087;BME280;35967;50.718;7.050;2022-11-23T01:53:53;99074.88;;;10.03;75.67
50087;BME280;35967;50.718;7.050;2022-11-23T02:04:01;99075.66;;;10.05;75.69
50087;BME280;35967;50.718;7.050;2022-11-23T02:14:06;99079.19;;;10.02;76.03
50087;BME280;35967;50.718;7.050;2022-11-23T02:24:22;99094.75;;;9.99;75.96
50087;BME280;35967;50.718;7.050;2022-11-23T02:34:29;99094.63;;;10.02;75.33
50087;BME280;35967;50.718;7.050;2022-11-23T02:44:45;99084.97;;;10.07;75.34
50087;BME280;35967;50.718;7.050;2022-11-23T02:54:56;99089.47;;;10.02;75.00
50087;BME280;35967;50.718;7.050;2022-11-23T03:05:04;99094.75;;;9.99;75.35
50087;BME280;35967;50.718;7.050;2022-11-23T03:15:12;99082.78;;;9.98;75.15
50087;BME280;35967;50.718;7.050;2022-11-23T03:25:21;99081.81;;;9.82;75.42
50087;BME280;35967;50.718;7.050;2022-11-23T03:35:32;99091.00;;;9.87;75.55
50087;BME280;35967;50.718;7.050;2022-11-23T03:46:07;99101.16;;;9.90;75.36
50087;BME280;35967;50.718;7.050;2022-11-23T03:56:14;99102.25;;;9.85;75.28
50087;BME280;35967;50.718;7.050;2022-11-23T04:06:20;99105.56;;;9.68;75.89
50087;BME280;35967;50.718;7.050;2022-11-23T04:16:39;99105.91;;;9.79;75.50
50087;BME280;35967;50.718;7.050;2022-11-23T04:26:43;99106.69;;;9.81;75.44
50087;BME280;35967;50.718;7.050;2022-11-23T04:36:48;99093.22;;;9.76;75.85
50087;BME280;35967;50.718;7.050;2022-11-23T04:47:01;99100.16;;;9.74;76.00
50087;BME280;35967;50.718;7.050;2022-11-23T05:08:55;99103.19;;;9.63;75.42
50087;BME280;35967;50.718;7.050;2022-11-23T05:19:20;99121.81;;;9.68;75.21
50087;BME280;35967;50.718;7.050;2022-11-23T05:29:26;99131.88;;;9.73;74.91
50087;BME280;35967;50.718;7.050;2022-11-23T05:39:33;99127.09;;;9.65;75.44
50087;BME280;35967;50.718;7.050;2022-11-23T05:49:42;99140.00;;;9.63;75.29
50087;BME280;35967;50.718;7.050;2022-11-23T05:59:56;99143.13;;;9.70;75.10
50087;BME280;35967;50.718;7.050;2022-11-23T06:10:13;99155.59;;;9.79;74.84
50087;BME280;35967;50.718;7.050;2022-11-23T06:20:24;99144.41;;;9.81;74.25
50087;BME280;35967;50.718;7.050;2022-11-23T06:30:34;99147.41;;;9.90;74.26
50087;BME280;35967;50.718;7.050;2022-11-23T06:40:46;99141.56;;;9.87;74.13
50087;BME280;35967;50.718;7.050;2022-11-23T06:50:52;99148.31;;;9.89;73.50
50087;BME280;35967;50.718;7.050;2022-11-23T07:01:00;99155.63;;;9.78;74.02
50087;BME280;35967;50.718;7.050;2022-11-23T07:11:10;99155.59;;;9.79;73.82
50087;BME280;35967;50.718;7.050;2022-11-23T07:21:15;99166.72;;;9.59;74.97
50087;BME280;35967;50.718;7.050;2022-11-23T07:31:26;99173.13;;;9.49;76.42
50087;BME280;35967;50.718;7.050;2022-11-23T07:41:35;99187.31;;;9.58;76.17
50087;BME280;35967;50.718;7.050;2022-11-23T07:51:45;99214.22;;;9.70;76.33
50087;BME280;35967;50.718;7.050;2022-11-23T08:13:17;99207.19;;;9.75;75.76
50087;BME280;35967;50.718;7.050;2022-11-23T08:23:21;99217.38;;;9.76;74.99
50087;BME280;35967;50.718;7.050;2022-11-23T08:33:25;99215.97;;;9.69;72.63
50087;BME280;35967;50.718;7.050;2022-11-23T08:43:28;99207.81;;;9.80;72.06
50087;BME280;35967;50.718;7.050;2022-11-23T08:53:33;99205.16;;;9.82;71.42
50087;BME280;35967;50.718;7.050;2022-11-23T09:03:36;99200.53;;;9.90;68.77
50087;BME280;35967;50.718;7.050;2022-11-23T09:13:41;99202.69;;;9.80;67.54
50087;BME280;35967;50.718;7.050;2022-11-23T09:23:44;99216.09;;;9.87;67.28
50087;BME280;35967;50.718;7.050;2022-11-23T09:33:51;99219.97;;;9.97;66.21
50087;BME280;35967;50.718;7.050;2022-11-23T09:43:59;99207.53;;;10.07;66.61
50087;BME280;35967;50.718;7.050;2022-11-23T09:54:11;99218.44;;;10.12;65.55
50087;BME280;35967;50.718;7.050;2022-11-23T10:04:18;99232.56;;;10.03;65.23
50087;BME280;35967;50.718;7.050;2022-11-23T10:14:38;99220.03;;;10.15;64.12
50087;BME280;35967;50.718;7.050;2022-11-23T10:24:49;99212.09;;;10.21;64.44
50087;BME280;35967;50.718;7.050;2022-11-23T10:34:59;99190.47;;;10.25;64.42
50087;BME280;35967;50.718;7.050;2022-11-23T10:45:05;99162.84;;;10.49;63.55
50087;BME280;35967;50.718;7.050;2022-11-23T10:55:13;99156.63;;;10.53;63.03
50087;BME280;35967;50.718;7.050;2022-11-23T11:05:25;99130.00;;;10.54;63.19
50087;BME280;35967;50.718;7.050;2022-11-23T11:15:55;99131.59;;;10.57;62.61
50087;BME280;35967;50.718;7.050;2022-11-23T11:26:08;99118.91;;;10.71;63.35
50087;BME280;35967;50.718;7.050;2022-11-23T11:36:15;99109.28;;;10.57;63.09
50087;BME280;35967;50.718;7.050;2022-11-23T11:46:22;99121.47;;;10.71;63.69
50087;BME280;35967;50.718;7.050;2022-11-23T11:56:35;99107.41;;;10.61;62.36
50087;BME280;35967;50.718;7.050;2022-11-23T12:06:42;99113.41;;;10.79;61.73
50087;BME280;35967;50.718;7.050;2022-11-23T12:16:57;99105.84;;;11.11;62.03
50087;BME280;35967;50.718;7.050;2022-11-23T12:27:31;99078.66;;;11.23;61.17
50087;BME280;35967;50.718;7.050;2022-11-23T12:37:47;99080.25;;;11.08;61.60
50087;BME280;35967;50.718;7.050;2022-11-23T12:47:58;99075.72;;;10.96;62.45
50087;BME280;35967;50.718;7.050;2022-11-23T12:58:11;99041.31;;;11.14;61.20
50087;BME280;35967;50.718;7.050;2022-11-23T13:08:29;99012.91;;;11.16;61.24
50087;BME280;35967;50.718;7.050;2022-11-23T13:18:47;99006.50;;;11.41;60.67
50087;BME280;35967;50.718;7.050;2022-11-23T13:28:53;99020.19;;;11.25;59.89
50087;BME280;35967;50.718;7.050;2022-11-23T13:38:59;99005.78;;;11.21;59.32
50087;BME280;35967;50.718;7.050;2022-11-23T13:49:28;98995.56;;;11.19;59.53
50087;BME280;35967;50.718;7.050;2022-11-23T13:59:32;98985.59;;;11.13;59.76
50087;BME280;35967;50.718;7.050;2022-11-23T14:09:42;98983.69;;;11.17;59.67
50087;BME280;35967;50.718;7.050;2022-11-23T14:20:03;98971.59;;;11.01;61.11
50087;BME280;35967;50.718;7.050;2022-11-23T14:30:20;98968.19;;;11.01;62.58
50087;BME280;35967;50.718;7.050;2022-11-23T14:40:27;98973.28;;;10.85;63.67
50087;BME280;35967;50.718;7.050;2022-11-23T14:50:33;98989.00;;;10.96;63.12
50087;BME280;35967;50.718;7.050;2022-11-23T15:00:39;99014.91;;;10.93;63.75
50087;BME280;35967;50.718;7.050;2022-11-23T15:10:47;99021.03;;;10.91;66.28
50087;BME280;35967;50.718;7.050;2022-11-23T15:20:56;99028.63;;;10.76;67.56
50087;BME280;35967;50.718;7.050;2022-11-23T15:31:00;99033.44;;;10.82;67.81
50087;BME280;35967;50.718;7.050;2022-11-23T15:41:05;99065.31;;;10.80;68.71
50087;BME280;35967;50.718;7.050;2022-11-23T15:51:22;99117.25;;;10.70;70.07
50087;BME280;35967;50.718;7.050;2022-11-23T16:01:28;99133.69;;;10.49;74.04
50087;BME280;35967;50.718;7.050;2022-11-23T16:11:33;99151.56;;;10.33;80.10
50087;BME280;35967;50.718;7.050;2022-11-23T16:21:43;99167.69;;;10.17;79.65
50087;BME280;35967;50.718;7.050;2022-11-23T16:31:52;99191.69;;;10.37;82.12
50087;BME280;35967;50.718;7.050;2022-11-23T16:41:56;99195.00;;;9.99;85.45
50087;BME280;35967;50.718;7.050;2022-11-23T16:51:59;99228.94;;;9.66;85.33
50087;BME280;35967;50.718;7.050;2022-11-23T17:02:10;99240.63;;;9.53;86.09
50087;BME280;35967;50.718;7.050;2022-11-23T17:12:16;99239.38;;;9.63;88.66
50087;BME280;35967;50.718;7.050;2022-11-23T17:22:21;99236.34;;;9.53;89.07
50087;BME280;35967;50.718;7.050;2022-11-23T17:32:24;99256.91;;;9.53;89.09
50087;BME280;35967;50.718;7.050;2022-11-23T17:42:28;99277.94;;;9.61;89.82
50087;BME280;35967;50.718;7.050;2022-11-23T17:52:32;99292.53;;;9.61;89.27
50087;BME280;35967;50.718;7.050;2022-11-23T18:02:36;99289.69;;;9.46;90.22
50087;BME280;35967;50.718;7.050;2022-11-23T18:12:39;99300.75;;;9.49;90.11
50087;BME280;35967;50.718;7.050;2022-11-23T18:22:44;99317.09;;;9.46;88.75
50087;BME280;35967;50.718;7.050;2022-11-23T18:32:46;99338.94;;;9.34;89.96
50087;BME280;35967;50.718;7.050;2022-11-23T18:42:51;99360.00;;;9.44;89.37
50087;BME280;35967;50.718;7.050;2022-11-23T18:52:54;99367.00;;;9.40;89.01
50087;BME280;35967;50.718;7.050;2022-11-23T19:03:00;99387.03;;;9.30;87.75
50087;BME280;35967;50.718;7.050;2022-11-23T19:13:04;99388.75;;;9.30;86.68
50087;BME280;35967;50.718;7.050;2022-11-23T19:23:10;99410.25;;;9.27;86.85
50087;BME280;35967;50.718;7.050;2022-11-23T19:33:13;99421.53;;;9.23;86.62
50087;BME280;35967;50.718;7.050;2022-11-23T19:43:17;99435.00;;;9.30;86.53
50087;BME280;35967;50.718;7.050;2022-11-23T19:53:20;99446.25;;;9.26;86.59
50087;BME280;35967;50.718;7.050;2022-11-23T20:03:33;99463.88;;;9.11;86.96
50087;BME280;35967;50.718;7.050;2022-11-23T20:13:36;99478.84;;;9.00;87.70
50087;BME280;35967;50.718;7.050;2022-11-23T20:23:42;99485.53;;;9.04;87.15
50087;BME280;35967;50.718;7.050;2022-11-23T20:33:45;99503.50;;;9.04;86.35
50087;BME280;35967;50.718;7.050;2022-11-23T20:43:53;99501.56;;;9.11;86.94
50087;BME280;35967;50.718;7.050;2022-11-23T20:53:57;99524.22;;;9.23;86.84
50087;BME280;35967;50.718;7.050;2022-11-23T21:04:01;99532.25;;;9.14;87.79
50087;BME280;35967;50.718;7.050;2022-11-23T21:14:06;99541.59;;;9.17;87.95
50087;BME280;35967;50.718;7.050;2022-11-23T21:24:19;99557.00;;;9.17;88.23
50087;BME280;35967;50.718;7.050;2022-11-23T21:34:24;99568.97;;;9.16;87.59
50087;BME280;35967;50.718;7.050;2022-11-23T21:44:28;99585.69;;;9.03;88.33
50087;BME280;35967;50.718;7.050;2022-11-23T21:54:32;99589.31;;;9.22;88.29
50087;BME280;35967;50.718;7.050;2022-11-23T22:04:37;99604.63;;;9.25;88.40
50087;BME280;35967;50.718;7.050;2022-11-23T22:14:40;99619.81;;;9.31;88.69
50087;BME280;35967;50.718;7.050;2022-11-23T22:24:45;99642.47;;;9.45;88.48
50087;BME280;35967;50.718;7.050;2022-11-23T22:34:48;99639.91;;;9.45;88.91
50087;BME280;35967;50.718;7.050;2022-11-23T22:44:52;99656.31;;;9.41;88.02
50087;BME280;35967;50.718;7.050;2022-11-23T22:54:56;99679.59;;;9.37;88.27
50087;BME280;35967;50.718;7.050;2022-11-23T23:05:00;99687.25;;;9.38;88.00
50087;BME280;35967;50.718;7.050;2022-11-23T23:15:04;99696.91;;;9.30;88.69
50087;BME280;35967;50.718;7.050;2022-11-23T23:25:10;99702.25;;;9.24;88.74
50087;BME280;35967;50.718;7.050;2022-11-23T23:35:13;99716.78;;;9.25;87.93
50087;BME280;35967;50.718;7.050;2022-11-23T23:45:17;99736.34;;;9.29;87.93
50087;BME280;35967;50.718;7.050;2022-11-23T23:55:20;99747.41;;;9.31;87.85
